createdAt,value
2018-03-03T00:00:05.566Z,961.61
2018-03-03T00:01:06.042Z,961.42
2018-03-03T00:02:05.604Z,961.64
2018-03-03T00:03:05.938Z,961.61
2018-03-03T00:04:05.290Z,961.42
2018-03-03T00:05:05.610Z,961.53
2018-03-03T00:06:06.044Z,961.50
2018-03-03T00:07:05.612Z,961.59
2018-03-03T00:08:06.408Z,961.56
2018-03-03T00:09:05.995Z,961.42
2018-03-03T00:10:05.876Z,961.64
2018-03-03T00:11:05.594Z,961.61
2018-03-03T00:12:06.372Z,961.48
2018-03-03T00:13:05.891Z,961.59
2018-03-03T00:14:05.657Z,961.40
2018-03-03T00:15:05.546Z,961.64
2018-03-03T00:16:05.623Z,961.53
2018-03-03T00:17:05.224Z,961.53
2018-03-03T00:18:06.231Z,961.65
2018-03-03T00:19:05.631Z,961.56
2018-03-03T00:20:06.045Z,961.48
2018-03-03T00:21:06.631Z,961.65
2018-03-03T00:22:05.211Z,961.48
2018-03-03T00:23:05.508Z,961.32
2018-03-03T00:24:05.219Z,961.62
2018-03-03T00:25:06.346Z,961.56
2018-03-03T00:26:05.578Z,961.62
2018-03-03T00:27:05.684Z,961.54
2018-03-03T00:28:05.998Z,961.65
2018-03-03T00:29:06.343Z,961.57
2018-03-03T00:30:05.625Z,961.74
2018-03-03T00:31:06.241Z,961.63
2018-03-03T00:32:06.318Z,961.65
2018-03-03T00:33:06.074Z,961.66
2018-03-03T00:34:05.225Z,961.74
2018-03-03T00:35:06.228Z,961.52
2018-03-03T00:36:06.254Z,961.63
2018-03-03T00:37:10.079Z,961.77
2018-03-03T00:38:07.537Z,961.68
2018-03-03T00:39:05.967Z,961.63
2018-03-03T00:40:06.106Z,961.69
2018-03-03T00:41:05.972Z,961.63
2018-03-03T00:42:06.346Z,961.69
2018-03-03T00:43:06.030Z,961.50
2018-03-03T00:44:05.628Z,961.58
2018-03-03T00:45:06.773Z,961.66
2018-03-03T00:46:06.006Z,961.80
2018-03-03T00:47:05.905Z,961.61
2018-03-03T00:48:06.070Z,961.64
2018-03-03T00:49:05.618Z,961.64
2018-03-03T00:50:05.658Z,961.67
2018-03-03T00:51:05.962Z,961.61
2018-03-03T00:52:06.418Z,961.69
2018-03-03T00:53:05.699Z,961.72
2018-03-03T00:54:05.941Z,961.64
2018-03-03T00:55:05.740Z,961.78
2018-03-03T00:56:07.091Z,961.78
2018-03-03T00:57:06.358Z,961.86
2018-03-03T00:58:05.987Z,961.76
2018-03-03T00:59:05.699Z,961.73
2018-03-03T01:00:05.642Z,961.81
2018-03-03T01:01:06.185Z,961.70
2018-03-03T01:02:07.091Z,961.84
2018-03-03T01:03:06.377Z,961.84
2018-03-03T01:04:06.397Z,961.70
2018-03-03T01:05:05.313Z,961.87
2018-03-03T01:06:05.245Z,961.71
2018-03-03T01:07:05.689Z,961.62
2018-03-03T01:08:06.102Z,961.74
2018-03-03T01:09:05.560Z,961.57
2018-03-03T01:10:05.772Z,961.71
2018-03-03T01:11:06.478Z,961.77
2018-03-03T01:12:06.069Z,961.74
2018-03-03T01:13:05.308Z,961.49
2018-03-03T01:14:05.955Z,961.71
2018-03-03T01:15:10.964Z,961.82
2018-03-03T01:16:06.068Z,961.82
2018-03-03T01:17:06.704Z,961.63
2018-03-03T01:18:05.311Z,961.66
2018-03-03T01:19:06.044Z,961.66
2018-03-03T01:20:05.278Z,961.58
2018-03-03T01:21:05.697Z,961.60
2018-03-03T01:22:06.403Z,961.61
2018-03-03T01:23:06.295Z,961.69
2018-03-03T01:24:05.978Z,961.60
2018-03-03T01:25:05.628Z,961.47
2018-03-03T01:26:06.481Z,961.52
2018-03-03T01:27:06.057Z,961.72
2018-03-03T01:28:05.256Z,961.53
2018-03-03T01:29:06.038Z,961.36
2018-03-03T01:30:06.146Z,961.36
2018-03-03T01:31:05.673Z,961.47
2018-03-03T01:32:07.185Z,961.66
2018-03-03T01:33:05.644Z,961.53
2018-03-03T01:34:06.065Z,961.42
2018-03-03T01:35:05.728Z,961.55
2018-03-03T01:36:06.102Z,961.50
2018-03-03T01:37:06.722Z,961.50
2018-03-03T01:38:05.323Z,961.45
2018-03-03T01:39:06.056Z,961.58
2018-03-03T01:40:05.327Z,961.42
2018-03-03T01:41:06.048Z,961.56
2018-03-03T01:42:05.623Z,961.45
2018-03-03T01:43:06.050Z,961.64
2018-03-03T01:44:05.376Z,961.42
2018-03-03T01:45:05.673Z,961.55
2018-03-03T01:46:06.042Z,961.64
2018-03-03T01:47:05.297Z,961.53
2018-03-03T01:48:05.651Z,961.67
2018-03-03T01:49:06.446Z,961.47
2018-03-03T01:50:05.678Z,961.53
2018-03-03T01:51:06.818Z,961.47
2018-03-03T01:52:05.669Z,961.47
2018-03-03T01:53:05.367Z,961.50
2018-03-03T01:54:05.649Z,961.42
2018-03-03T01:55:06.057Z,961.50
2018-03-03T01:56:06.121Z,961.61
2018-03-03T01:57:05.599Z,961.61
2018-03-03T01:58:05.775Z,961.56
2018-03-03T01:59:06.065Z,961.53
2018-03-03T02:00:06.072Z,961.47
2018-03-03T02:01:05.639Z,961.45
2018-03-03T02:02:05.743Z,961.45
2018-03-03T02:03:06.088Z,961.34
2018-03-03T02:04:05.750Z,961.42
2018-03-03T02:05:06.138Z,961.50
2018-03-03T02:06:05.934Z,961.34
2018-03-03T02:07:05.753Z,961.42
2018-03-03T02:08:07.162Z,961.56
2018-03-03T02:09:05.673Z,961.61
2018-03-03T02:10:06.085Z,961.53
2018-03-03T02:11:05.306Z,961.45
2018-03-03T02:12:05.699Z,961.45
2018-03-03T02:13:06.078Z,961.50
2018-03-03T02:14:05.714Z,961.50
2018-03-03T02:15:05.329Z,961.42
2018-03-03T02:16:05.752Z,961.37
2018-03-03T02:17:06.099Z,961.37
2018-03-03T02:18:05.717Z,961.53
2018-03-03T02:19:06.079Z,961.61
2018-03-03T02:20:05.296Z,961.39
2018-03-03T02:21:05.705Z,961.48
2018-03-03T02:22:06.463Z,961.47
2018-03-03T02:23:06.415Z,961.36
2018-03-03T02:24:05.326Z,961.39
2018-03-03T02:25:05.653Z,961.39
2018-03-03T02:26:07.243Z,961.39
2018-03-03T02:27:05.717Z,961.20
2018-03-03T02:28:06.010Z,961.31
2018-03-03T02:29:06.397Z,961.28
2018-03-03T02:30:05.344Z,961.17
2018-03-03T02:31:05.757Z,961.25
2018-03-03T02:32:06.075Z,961.28
2018-03-03T02:33:06.105Z,961.23
2018-03-03T02:34:05.328Z,961.20
2018-03-03T02:35:06.420Z,961.39
2018-03-03T02:36:06.191Z,961.28
2018-03-03T02:37:05.691Z,961.25
2018-03-03T02:38:06.077Z,961.12
2018-03-03T02:39:05.727Z,961.12
2018-03-03T02:40:06.120Z,961.23
2018-03-03T02:41:05.433Z,961.12
2018-03-03T02:42:06.026Z,961.20
2018-03-03T02:43:05.766Z,961.17
2018-03-03T02:44:06.237Z,961.06
2018-03-03T02:45:05.703Z,961.20
2018-03-03T02:46:06.113Z,961.30
2018-03-03T02:47:05.409Z,961.20
2018-03-03T02:48:06.105Z,961.17
2018-03-03T02:49:05.376Z,961.33
2018-03-03T02:50:11.095Z,961.22
2018-03-03T02:51:06.392Z,961.22
2018-03-03T02:52:05.757Z,961.20
2018-03-03T02:53:11.013Z,961.20
2018-03-03T02:54:06.132Z,961.14
2018-03-03T02:55:05.413Z,961.31
2018-03-03T02:56:05.351Z,961.20
2018-03-03T02:57:05.711Z,961.33
2018-03-03T02:58:06.101Z,961.30
2018-03-03T02:59:05.419Z,961.36
2018-03-03T03:00:06.118Z,961.25
2018-03-03T03:01:05.828Z,961.19
2018-03-03T03:02:05.351Z,961.41
2018-03-03T03:03:05.492Z,961.33
2018-03-03T03:04:05.786Z,961.28
2018-03-03T03:05:07.286Z,961.33
2018-03-03T03:06:06.134Z,961.22
2018-03-03T03:07:05.364Z,961.27
2018-03-03T03:08:06.001Z,961.30
2018-03-03T03:09:05.353Z,961.25
2018-03-03T03:10:10.287Z,961.33
2018-03-03T03:11:05.655Z,961.27
2018-03-03T03:12:06.165Z,961.25
2018-03-03T03:13:06.119Z,961.16
2018-03-03T03:14:06.203Z,961.16
2018-03-03T03:15:05.747Z,961.11
2018-03-03T03:16:05.388Z,961.19
2018-03-03T03:17:06.036Z,961.27
2018-03-03T03:18:05.444Z,961.08
2018-03-03T03:19:05.448Z,961.38
2018-03-03T03:20:05.753Z,961.19
2018-03-03T03:21:07.206Z,961.19
2018-03-03T03:22:05.758Z,961.22
2018-03-03T03:23:13.277Z,961.27
2018-03-03T03:24:05.360Z,961.21
2018-03-03T03:25:05.697Z,961.16
2018-03-03T03:26:05.778Z,961.19
2018-03-03T03:27:06.117Z,961.16
2018-03-03T03:28:06.128Z,961.05
2018-03-03T03:29:06.425Z,961.19
2018-03-03T03:30:05.669Z,961.19
2018-03-03T03:31:05.763Z,961.13
2018-03-03T03:32:06.099Z,961.18
2018-03-03T03:33:05.086Z,961.27
2018-03-03T03:34:05.832Z,961.24
2018-03-03T03:35:05.903Z,961.16
2018-03-03T03:36:05.399Z,961.24
2018-03-03T03:37:05.724Z,961.27
2018-03-03T03:38:06.151Z,961.18
2018-03-03T03:39:05.447Z,961.10
2018-03-03T03:40:06.140Z,961.10
2018-03-03T03:41:05.763Z,961.21
2018-03-03T03:42:05.434Z,961.18
2018-03-03T03:43:06.160Z,961.07
2018-03-03T03:44:05.785Z,961.10
2018-03-03T03:45:06.168Z,961.13
2018-03-03T03:46:05.675Z,960.99
2018-03-03T03:47:05.830Z,961.05
2018-03-03T03:48:06.178Z,960.99
2018-03-03T03:49:05.468Z,961.05
2018-03-03T03:50:06.429Z,961.21
2018-03-03T03:51:05.778Z,961.16
2018-03-03T03:52:06.190Z,961.11
2018-03-03T03:53:10.730Z,961.08
2018-03-03T03:54:05.790Z,961.11
2018-03-03T03:55:06.499Z,961.05
2018-03-03T03:56:05.755Z,960.94
2018-03-03T03:57:06.119Z,960.97
2018-03-03T03:58:05.408Z,961.14
2018-03-03T03:59:05.480Z,961.11
2018-03-03T04:00:06.192Z,961.06
2018-03-03T04:01:05.744Z,961.14
2018-03-03T04:02:06.103Z,961.06
2018-03-03T04:03:06.202Z,961.01
2018-03-03T04:04:05.452Z,961.14
2018-03-03T04:05:05.823Z,961.06
2018-03-03T04:06:06.173Z,961.14
2018-03-03T04:07:05.823Z,960.95
2018-03-03T04:08:06.060Z,961.01
2018-03-03T04:09:06.114Z,961.04
2018-03-03T04:10:05.833Z,961.04
2018-03-03T04:11:06.915Z,960.90
2018-03-03T04:12:05.385Z,960.90
2018-03-03T04:13:06.211Z,960.96
2018-03-03T04:14:05.406Z,960.90
2018-03-03T04:15:05.837Z,960.90
2018-03-03T04:16:10.024Z,960.90
2018-03-03T04:17:06.223Z,960.85
2018-03-03T04:18:05.734Z,960.82
2018-03-03T04:19:06.211Z,960.85
2018-03-03T04:20:06.135Z,960.88
2018-03-03T04:21:06.068Z,960.82
2018-03-03T04:22:11.037Z,960.72
2018-03-03T04:23:05.457Z,960.72
2018-03-03T04:24:05.840Z,960.64
2018-03-03T04:25:05.988Z,960.70
2018-03-03T04:26:05.484Z,960.80
2018-03-03T04:27:05.825Z,960.78
2018-03-03T04:28:05.901Z,960.62
2018-03-03T04:29:05.067Z,960.73
2018-03-03T04:30:05.428Z,960.85
2018-03-03T04:31:06.484Z,960.70
2018-03-03T04:32:05.814Z,960.67
2018-03-03T04:33:05.887Z,960.80
2018-03-03T04:34:06.340Z,960.62
2018-03-03T04:35:10.905Z,960.80
2018-03-03T04:36:06.211Z,960.65
2018-03-03T04:37:05.475Z,960.65
2018-03-03T04:38:05.864Z,960.67
2018-03-03T04:39:06.199Z,960.62
2018-03-03T04:40:05.444Z,960.65
2018-03-03T04:41:05.916Z,960.67
2018-03-03T04:42:06.206Z,960.54
2018-03-03T04:43:05.832Z,960.56
2018-03-03T04:44:06.619Z,960.51
2018-03-03T04:45:05.562Z,960.67
2018-03-03T04:46:10.700Z,960.67
2018-03-03T04:47:05.159Z,960.45
2018-03-03T04:48:05.527Z,960.51
2018-03-03T04:49:05.382Z,960.59
2018-03-03T04:50:05.809Z,960.54
2018-03-03T04:51:10.590Z,960.53
2018-03-03T04:52:05.906Z,960.42
2018-03-03T04:53:06.195Z,960.48
2018-03-03T04:54:10.161Z,960.48
2018-03-03T04:55:05.481Z,960.42
2018-03-03T04:56:05.792Z,960.53
2018-03-03T04:57:05.532Z,960.48
2018-03-03T04:58:06.968Z,960.48
2018-03-03T04:59:10.641Z,960.37
2018-03-03T05:00:05.865Z,960.48
2018-03-03T05:01:05.468Z,960.42
2018-03-03T05:02:05.888Z,960.50
2018-03-03T05:03:05.854Z,960.26
2018-03-03T05:04:15.360Z,960.29
2018-03-03T05:05:05.555Z,960.42
2018-03-03T05:06:05.440Z,960.34
2018-03-03T05:07:06.164Z,960.45
2018-03-03T05:08:05.404Z,960.42
2018-03-03T05:09:05.564Z,960.34
2018-03-03T05:10:05.470Z,960.45
2018-03-03T05:11:05.478Z,960.24
2018-03-03T05:12:06.231Z,960.43
2018-03-03T05:13:05.913Z,960.48
2018-03-03T05:14:06.242Z,960.40
2018-03-03T05:15:05.462Z,960.43
2018-03-03T05:16:05.926Z,960.32
2018-03-03T05:17:05.471Z,960.26
2018-03-03T05:18:05.873Z,960.34
2018-03-03T05:19:06.230Z,960.45
2018-03-03T05:20:06.252Z,960.18
2018-03-03T05:21:06.249Z,960.29
2018-03-03T05:22:05.490Z,960.29
2018-03-03T05:23:07.086Z,960.37
2018-03-03T05:24:05.903Z,960.29
2018-03-03T05:25:07.026Z,960.21
2018-03-03T05:26:05.515Z,960.27
2018-03-03T05:27:06.252Z,960.16
2018-03-03T05:28:06.254Z,960.10
2018-03-03T05:29:05.521Z,960.18
2018-03-03T05:30:05.870Z,960.10
2018-03-03T05:31:06.370Z,960.21
2018-03-03T05:32:06.587Z,960.19
2018-03-03T05:33:06.308Z,960.21
2018-03-03T05:34:05.889Z,960.30
2018-03-03T05:35:05.481Z,960.11
2018-03-03T05:36:05.979Z,960.19
2018-03-03T05:37:06.268Z,960.24
2018-03-03T05:38:10.408Z,960.35
2018-03-03T05:39:06.429Z,960.22
2018-03-03T05:40:05.930Z,960.05
2018-03-03T05:41:05.509Z,960.22
2018-03-03T05:42:06.181Z,960.14
2018-03-03T05:43:06.717Z,960.28
2018-03-03T05:44:05.868Z,960.17
2018-03-03T05:45:06.356Z,960.33
2018-03-03T05:46:05.508Z,960.39
2018-03-03T05:47:05.845Z,960.28
2018-03-03T05:48:06.289Z,960.39
2018-03-03T05:49:05.545Z,960.20
2018-03-03T05:50:05.120Z,960.23
2018-03-03T05:51:05.877Z,960.23
2018-03-03T05:52:06.283Z,960.23
2018-03-03T05:53:05.515Z,960.17
2018-03-03T05:54:05.557Z,960.17
2018-03-03T05:55:06.995Z,960.20
2018-03-03T05:56:06.166Z,960.26
2018-03-03T05:57:05.918Z,960.09
2018-03-03T05:58:06.607Z,960.20
2018-03-03T05:59:06.608Z,960.20
2018-03-03T06:00:05.897Z,960.17
2018-03-03T06:01:05.973Z,960.23
2018-03-03T06:02:05.538Z,960.26
2018-03-03T06:03:06.242Z,960.15
2018-03-03T06:04:05.499Z,960.18
2018-03-03T06:05:06.537Z,960.26
2018-03-03T06:06:05.541Z,960.15
2018-03-03T06:07:06.306Z,960.31
2018-03-03T06:08:05.539Z,960.26
2018-03-03T06:09:06.254Z,960.40
2018-03-03T06:10:05.576Z,960.32
2018-03-03T06:11:06.211Z,960.26
2018-03-03T06:12:05.544Z,960.18
2018-03-03T06:13:05.983Z,960.18
2018-03-03T06:14:05.397Z,960.24
2018-03-03T06:15:05.917Z,960.32
2018-03-03T06:16:05.545Z,960.18
2018-03-03T06:17:05.551Z,960.48
2018-03-03T06:18:05.945Z,960.32
2018-03-03T06:19:05.789Z,960.32
2018-03-03T06:20:05.980Z,960.21
2018-03-03T06:21:05.573Z,960.37
2018-03-03T06:22:05.570Z,960.24
2018-03-03T06:23:06.076Z,960.29
2018-03-03T06:24:05.918Z,960.37
2018-03-03T06:25:05.978Z,960.35
2018-03-03T06:26:05.947Z,960.24
2018-03-03T06:27:05.435Z,960.21
2018-03-03T06:28:06.260Z,960.37
2018-03-03T06:29:06.275Z,960.10
2018-03-03T06:30:05.543Z,960.38
2018-03-03T06:31:05.939Z,960.46
2018-03-03T06:32:05.175Z,960.13
2018-03-03T06:33:05.612Z,960.21
2018-03-03T06:34:06.000Z,960.38
2018-03-03T06:35:05.548Z,960.21
2018-03-03T06:36:06.224Z,960.29
2018-03-03T06:37:05.558Z,960.10
2018-03-03T06:38:06.025Z,960.21
2018-03-03T06:39:05.240Z,960.30
2018-03-03T06:40:05.593Z,960.16
2018-03-03T06:41:06.307Z,960.21
2018-03-03T06:42:05.536Z,960.10
2018-03-03T06:43:05.826Z,960.21
2018-03-03T06:44:06.412Z,960.16
2018-03-03T06:45:05.603Z,960.07
2018-03-03T06:46:06.259Z,960.24
2018-03-03T06:47:05.604Z,960.18
2018-03-03T06:48:05.171Z,960.13
2018-03-03T06:49:05.569Z,960.24
2018-03-03T06:50:05.646Z,960.26
2018-03-03T06:51:05.975Z,960.18
2018-03-03T06:52:06.587Z,960.34
2018-03-03T06:53:05.916Z,960.21
2018-03-03T06:54:06.367Z,960.04
2018-03-03T06:55:05.881Z,960.32
2018-03-03T06:56:05.161Z,960.15
2018-03-03T06:57:05.528Z,960.26
2018-03-03T06:58:05.835Z,960.18
2018-03-03T06:59:05.262Z,960.40
2018-03-03T07:00:05.976Z,960.28
2018-03-03T07:01:06.300Z,960.23
2018-03-03T07:02:05.598Z,960.25
2018-03-03T07:03:05.639Z,960.25
2018-03-03T07:04:05.554Z,960.31
2018-03-03T07:05:05.936Z,960.50
2018-03-03T07:06:06.276Z,960.34
2018-03-03T07:07:05.919Z,960.31
2018-03-03T07:08:06.331Z,960.36
2018-03-03T07:09:05.567Z,960.42
2018-03-03T07:10:05.943Z,960.23
2018-03-03T07:11:05.491Z,960.39
2018-03-03T07:12:05.948Z,960.44
2018-03-03T07:13:06.398Z,960.31
2018-03-03T07:14:06.205Z,960.36
2018-03-03T07:15:05.885Z,960.33
2018-03-03T07:16:06.600Z,960.28
2018-03-03T07:17:05.936Z,960.47
2018-03-03T07:18:05.472Z,960.44
2018-03-03T07:19:05.584Z,960.44
2018-03-03T07:20:06.046Z,960.39
2018-03-03T07:21:05.968Z,960.41
2018-03-03T07:22:05.927Z,960.47
2018-03-03T07:23:06.032Z,960.33
2018-03-03T07:24:05.618Z,960.47
2018-03-03T07:25:10.477Z,960.55
2018-03-03T07:26:05.208Z,960.36
2018-03-03T07:27:05.625Z,960.44
2018-03-03T07:28:06.348Z,960.30
2018-03-03T07:29:05.859Z,960.36
2018-03-03T07:30:05.507Z,960.30
2018-03-03T07:31:05.589Z,960.27
2018-03-03T07:32:05.941Z,960.27
2018-03-03T07:33:05.874Z,960.19
2018-03-03T07:34:05.333Z,960.25
2018-03-03T07:35:06.295Z,960.19
2018-03-03T07:36:06.269Z,960.19
2018-03-03T07:37:06.380Z,960.41
2018-03-03T07:38:05.995Z,960.21
2018-03-03T07:39:06.041Z,960.21
2018-03-03T07:40:05.902Z,960.37
2018-03-03T07:41:06.447Z,960.32
2018-03-03T07:42:05.628Z,960.35
2018-03-03T07:43:06.236Z,960.40
2018-03-03T07:44:05.598Z,960.40
2018-03-03T07:45:05.977Z,960.37
2018-03-03T07:46:05.600Z,960.32
2018-03-03T07:47:05.921Z,960.37
2018-03-03T07:48:06.060Z,960.53
2018-03-03T07:49:05.248Z,960.20
2018-03-03T07:50:05.293Z,960.45
2018-03-03T07:51:05.597Z,960.42
2018-03-03T07:52:05.623Z,960.37
2018-03-03T07:53:05.967Z,960.26
2018-03-03T07:54:05.543Z,960.31
2018-03-03T07:55:05.238Z,960.31
2018-03-03T07:56:05.719Z,960.23
2018-03-03T07:57:05.583Z,960.39
2018-03-03T07:58:05.969Z,960.37
2018-03-03T07:59:05.244Z,960.34
2018-03-03T08:00:05.950Z,960.50
2018-03-03T08:01:05.234Z,960.26
2018-03-03T08:02:06.003Z,960.42
2018-03-03T08:03:05.647Z,960.20
2018-03-03T08:04:05.958Z,960.39
2018-03-03T08:05:05.701Z,960.31
2018-03-03T08:06:05.928Z,960.17
2018-03-03T08:07:05.276Z,960.20
2018-03-03T08:08:06.746Z,960.29
2018-03-03T08:09:05.644Z,960.26
2018-03-03T08:10:06.281Z,960.37
2018-03-03T08:11:05.545Z,960.28
2018-03-03T08:12:05.615Z,960.34
2018-03-03T08:13:05.707Z,960.31
2018-03-03T08:14:06.018Z,960.17
2018-03-03T08:15:05.261Z,960.17
2018-03-03T08:16:05.611Z,960.23
2018-03-03T08:17:06.310Z,960.28
2018-03-03T08:18:05.603Z,960.28
2018-03-03T08:19:10.588Z,960.31
2018-03-03T08:20:06.109Z,960.36
2018-03-03T08:21:05.571Z,960.25
2018-03-03T08:22:06.012Z,960.22
2018-03-03T08:23:06.342Z,960.28
2018-03-03T08:24:05.658Z,960.36
2018-03-03T08:25:05.997Z,960.19
2018-03-03T08:26:05.653Z,960.33
2018-03-03T08:27:05.940Z,960.30
2018-03-03T08:28:05.638Z,960.28
2018-03-03T08:29:06.370Z,960.28
2018-03-03T08:30:06.073Z,960.16
2018-03-03T08:31:05.680Z,960.30
2018-03-03T08:32:05.381Z,960.30
2018-03-03T08:33:06.033Z,960.25
2018-03-03T08:34:05.286Z,960.22
2018-03-03T08:35:05.654Z,960.19
2018-03-03T08:36:06.308Z,960.30
2018-03-03T08:37:06.315Z,960.44
2018-03-03T08:38:05.641Z,960.33
2018-03-03T08:39:06.031Z,960.24
2018-03-03T08:40:05.340Z,960.30
2018-03-03T08:41:05.287Z,960.27
2018-03-03T08:42:05.256Z,960.30
2018-03-03T08:43:05.756Z,960.32
2018-03-03T08:44:06.096Z,960.18
2018-03-03T08:45:05.637Z,960.24
2018-03-03T08:46:07.170Z,960.24
2018-03-03T08:47:05.703Z,960.13
2018-03-03T08:48:16.034Z,960.24
2018-03-03T08:49:06.344Z,960.24
2018-03-03T08:50:05.637Z,960.35
2018-03-03T08:51:05.709Z,960.18
2018-03-03T08:52:06.039Z,960.37
2018-03-03T08:53:05.290Z,960.07
2018-03-03T08:54:05.773Z,960.43
2018-03-03T08:55:05.284Z,960.15
2018-03-03T08:56:06.385Z,960.32
2018-03-03T08:57:06.007Z,960.37
2018-03-03T08:58:05.296Z,960.31
2018-03-03T08:59:06.341Z,960.18
2018-03-03T09:00:05.273Z,960.42
2018-03-03T09:01:05.680Z,960.31
2018-03-03T09:02:06.355Z,960.42
2018-03-03T09:03:06.026Z,960.20
2018-03-03T09:04:05.759Z,960.28
2018-03-03T09:05:05.312Z,960.42
2018-03-03T09:06:06.082Z,960.22
2018-03-03T09:07:05.356Z,960.44
2018-03-03T09:08:05.298Z,960.36
2018-03-03T09:09:06.474Z,960.30
2018-03-03T09:10:06.098Z,960.44
2018-03-03T09:11:05.777Z,960.44
2018-03-03T09:12:06.095Z,960.41
2018-03-03T09:13:05.296Z,960.52
2018-03-03T09:14:05.697Z,960.49
2018-03-03T09:15:06.807Z,960.44
2018-03-03T09:16:06.044Z,960.49
2018-03-03T09:17:05.703Z,960.35
2018-03-03T09:18:06.067Z,960.38
2018-03-03T09:19:05.397Z,960.51
2018-03-03T09:20:06.404Z,960.48
2018-03-03T09:21:06.011Z,960.54
2018-03-03T09:22:05.696Z,960.37
2018-03-03T09:23:05.603Z,960.51
2018-03-03T09:24:05.636Z,960.40
2018-03-03T09:25:05.695Z,960.34
2018-03-03T09:26:05.994Z,960.31
2018-03-03T09:27:05.301Z,960.39
2018-03-03T09:28:05.632Z,960.50
2018-03-03T09:29:06.379Z,960.50
2018-03-03T09:30:05.667Z,960.42
2018-03-03T09:31:05.312Z,960.50
2018-03-03T09:32:06.376Z,960.25
2018-03-03T09:33:05.677Z,960.44
2018-03-03T09:34:06.054Z,960.50
2018-03-03T09:35:06.445Z,960.58
2018-03-03T09:36:06.092Z,960.49
2018-03-03T09:37:05.418Z,960.41
2018-03-03T09:38:06.067Z,960.57
2018-03-03T09:39:10.888Z,960.41
2018-03-03T09:40:05.591Z,960.46
2018-03-03T09:41:06.076Z,960.43
2018-03-03T09:42:05.316Z,960.41
2018-03-03T09:43:05.747Z,960.49
2018-03-03T09:44:06.130Z,960.52
2018-03-03T09:45:05.350Z,960.60
2018-03-03T09:46:05.648Z,960.46
2018-03-03T09:47:05.326Z,960.43
2018-03-03T09:48:05.706Z,960.35
2018-03-03T09:49:06.168Z,960.60
2018-03-03T09:50:05.683Z,960.29
2018-03-03T09:51:06.130Z,960.40
2018-03-03T09:52:05.344Z,960.54
2018-03-03T09:53:06.056Z,960.35
2018-03-03T09:54:06.082Z,960.35
2018-03-03T09:55:05.480Z,960.35
2018-03-03T09:56:06.390Z,960.46
2018-03-03T09:57:05.788Z,960.40
2018-03-03T09:58:06.078Z,960.51
2018-03-03T09:59:06.362Z,960.48
2018-03-03T10:00:06.097Z,960.32
2018-03-03T10:01:06.130Z,960.32
2018-03-03T10:02:07.215Z,960.53
2018-03-03T10:03:05.374Z,960.45
2018-03-03T10:04:05.767Z,960.34
2018-03-03T10:05:05.348Z,960.26
2018-03-03T10:06:05.758Z,960.20
2018-03-03T10:07:05.391Z,960.33
2018-03-03T10:08:06.052Z,960.28
2018-03-03T10:09:05.849Z,960.22
2018-03-03T10:10:06.434Z,960.44
2018-03-03T10:11:06.152Z,960.27
2018-03-03T10:12:06.534Z,960.27
2018-03-03T10:13:08.129Z,960.27
2018-03-03T10:14:06.584Z,960.46
2018-03-03T10:15:10.593Z,960.35
2018-03-03T10:16:07.353Z,960.27
2018-03-03T10:17:08.085Z,960.40
2018-03-03T10:18:05.813Z,960.32
2018-03-03T10:19:06.034Z,960.40
2018-03-03T10:20:06.124Z,960.37
2018-03-03T10:21:05.396Z,960.37
2018-03-03T10:22:05.718Z,960.40
2018-03-03T10:23:06.203Z,960.28
2018-03-03T10:24:06.102Z,960.31
2018-03-03T10:25:06.047Z,960.31
2018-03-03T10:26:05.368Z,960.28
2018-03-03T10:27:05.767Z,960.28
2018-03-03T10:28:06.108Z,960.31
2018-03-03T10:29:05.377Z,960.39
2018-03-03T10:30:05.849Z,960.33
2018-03-03T10:31:06.182Z,960.35
2018-03-03T10:32:05.757Z,960.38
2018-03-03T10:33:06.133Z,960.43
2018-03-03T10:34:05.774Z,960.43
2018-03-03T10:35:06.208Z,960.43
2018-03-03T10:36:05.643Z,960.45
2018-03-03T10:37:06.193Z,960.42
2018-03-03T10:38:05.776Z,960.58
2018-03-03T10:39:05.362Z,960.61
2018-03-03T10:40:06.144Z,960.53
2018-03-03T10:41:05.394Z,960.55
2018-03-03T10:42:05.854Z,960.47
2018-03-03T10:43:06.841Z,960.36
2018-03-03T10:44:06.179Z,960.49
2018-03-03T10:45:06.154Z,960.49
2018-03-03T10:46:05.733Z,960.41
2018-03-03T10:47:05.809Z,960.43
2018-03-03T10:48:06.151Z,960.57
2018-03-03T10:49:05.809Z,960.48
2018-03-03T10:50:10.352Z,960.59
2018-03-03T10:51:06.146Z,960.43
2018-03-03T10:52:06.120Z,960.48
2018-03-03T10:53:05.681Z,960.59
2018-03-03T10:54:06.145Z,960.48
2018-03-03T10:55:05.353Z,960.59
2018-03-03T10:56:06.190Z,960.43
2018-03-03T10:57:05.364Z,960.43
2018-03-03T10:58:06.141Z,960.70
2018-03-03T10:59:05.400Z,960.53
2018-03-03T11:00:06.208Z,960.50
2018-03-03T11:01:05.762Z,960.39
2018-03-03T11:02:06.240Z,960.50
2018-03-03T11:03:05.284Z,960.49
2018-03-03T11:04:05.396Z,960.38
2018-03-03T11:05:05.737Z,960.54
2018-03-03T11:06:05.418Z,960.51
2018-03-03T11:07:05.343Z,960.48
2018-03-03T11:08:06.165Z,960.70
2018-03-03T11:09:06.148Z,960.57
2018-03-03T11:10:05.789Z,960.40
2018-03-03T11:11:06.178Z,960.45
2018-03-03T11:12:05.742Z,960.48
2018-03-03T11:13:05.402Z,960.42
2018-03-03T11:14:05.786Z,960.39
2018-03-03T11:15:06.194Z,960.47
2018-03-03T11:16:06.175Z,960.47
2018-03-03T11:17:05.889Z,960.36
2018-03-03T11:18:06.229Z,960.41
2018-03-03T11:19:05.799Z,960.41
2018-03-03T11:20:06.105Z,960.35
2018-03-03T11:21:06.096Z,960.40
2018-03-03T11:22:05.777Z,960.43
2018-03-03T11:23:05.461Z,960.65
2018-03-03T11:24:06.169Z,960.53
2018-03-03T11:25:05.806Z,960.34
2018-03-03T11:26:05.416Z,960.45
2018-03-03T11:27:06.464Z,960.50
2018-03-03T11:28:05.778Z,960.39
2018-03-03T11:29:05.494Z,960.61
2018-03-03T11:30:05.801Z,960.58
2018-03-03T11:31:06.193Z,960.60
2018-03-03T11:32:10.705Z,960.46
2018-03-03T11:33:05.867Z,960.33
2018-03-03T11:34:05.427Z,960.63
2018-03-03T11:35:06.178Z,960.55
2018-03-03T11:36:05.777Z,960.44
2018-03-03T11:37:05.448Z,960.44
2018-03-03T11:38:05.828Z,960.58
2018-03-03T11:39:05.412Z,960.39
2018-03-03T11:40:06.066Z,960.52
2018-03-03T11:41:05.031Z,960.58
2018-03-03T11:42:05.840Z,960.50
2018-03-03T11:43:05.412Z,960.53
2018-03-03T11:44:05.789Z,960.50
2018-03-03T11:45:06.233Z,960.58
2018-03-03T11:46:06.092Z,960.45
2018-03-03T11:47:05.420Z,960.53
2018-03-03T11:48:05.898Z,960.50
2018-03-03T11:49:05.390Z,960.50
2018-03-03T11:50:05.838Z,960.56
2018-03-03T11:51:05.473Z,960.56
2018-03-03T11:52:06.199Z,960.34
2018-03-03T11:53:05.803Z,960.50
2018-03-03T11:54:05.829Z,960.56
2018-03-03T11:55:10.590Z,960.36
2018-03-03T11:56:10.819Z,960.37
2018-03-03T11:57:05.890Z,960.48
2018-03-03T11:58:05.769Z,960.42
2018-03-03T11:59:06.230Z,960.45
2018-03-03T12:00:05.861Z,960.36
2018-03-03T12:01:06.139Z,960.34
2018-03-03T12:02:06.090Z,960.36
2018-03-03T12:03:05.077Z,960.42
2018-03-03T12:04:05.849Z,960.42
2018-03-03T12:05:05.727Z,960.39
2018-03-03T12:06:05.472Z,960.42
2018-03-03T12:07:05.105Z,960.34
2018-03-03T12:08:05.465Z,960.37
2018-03-03T12:09:05.774Z,960.42
2018-03-03T12:10:05.490Z,960.31
2018-03-03T12:11:10.716Z,960.23
2018-03-03T12:12:05.449Z,960.39
2018-03-03T12:13:06.212Z,960.28
2018-03-03T12:14:05.746Z,960.28
2018-03-03T12:15:05.835Z,960.41
2018-03-03T12:16:05.157Z,960.36
2018-03-03T12:17:06.216Z,960.33
2018-03-03T12:18:05.930Z,960.44
2018-03-03T12:19:05.830Z,960.36
2018-03-03T12:20:05.466Z,960.55
2018-03-03T12:21:05.922Z,960.55
2018-03-03T12:22:06.171Z,960.44
2018-03-03T12:23:05.928Z,960.30
2018-03-03T12:24:05.457Z,960.28
2018-03-03T12:25:06.107Z,960.41
2018-03-03T12:26:05.862Z,960.44
2018-03-03T12:27:05.469Z,960.44
2018-03-03T12:28:10.022Z,960.27